To NAV CANADA Home Page Login to a new session Search on AWWS site Disclaimer Vers la page française équivalente Tips FAQ What's new on the site To the Forecasts and Observations / NOTAM section To "File a Flight Plan" website Publications and other links Update of the User's profile FIC Telephone Numbers My Weather Data Folder Route Weather Data Regional Weather Data Local Weather Data To the Forecasts and Observations / NOTAM section
Request Generated 11/13/2018 at 18:45:32 UTC . Weather information available at that time is displayed.

METAR/TAF

FORT LIARD/NT    

SPECI CYJF 131821Z 05010G15KT 7SM SCT009 OVC015 M08/M10 A2984 RMK FG1SF3SC4 SLP122=
METAR CYJF 131800Z 06010G15KT 7SM BR BKN018 M08/M10 A2983 RMK FG2SC5 SLP120=
METAR CYJF 131700Z 05011G20KT 7SM BR BKN018 BKN120 M08/M10 A2984 RMK FG1SC5AC1 SLP123=
METAR CYJF 131600Z CCA 05009KT 7SM BR BKN015 OVC120 M09/M10 A2986 RMK FG4ST3AC1 VIS S-SW 3SM SLP128=
METAR CYJF 131600Z 05009KT 7SM BR BKN015 OVC120 M09/M10 A2986 RMK FG4ST3AC1 SLP128=

CYJF - No TAF is issued for this station

Your time UTC time
Weather data provided by Environment Canada and NAV CANADA